createdAt,value
2018-08-23T00:01:35.612Z,54.80
2018-08-23T00:04:05.961Z,67.60
2018-08-23T00:06:34.894Z,57.70
2018-08-23T00:09:03.759Z,60.00
2018-08-23T00:11:36.537Z,58.03
2018-08-23T00:14:05.086Z,49.33
2018-08-23T00:16:40.529Z,59.33
2018-08-23T00:19:09.057Z,61.10
2018-08-23T00:21:44.729Z,56.13
2018-08-23T00:24:15.801Z,69.63
2018-08-23T00:26:49.285Z,56.07
2018-08-23T00:29:23.042Z,54.43
2018-08-23T00:31:53.551Z,58.83
2018-08-23T00:34:25.738Z,55.37
2018-08-23T00:36:54.818Z,59.30
2018-08-23T00:39:23.397Z,58.17
2018-08-23T00:41:57.265Z,56.50
2018-08-23T00:44:25.784Z,66.77
2018-08-23T00:46:56.549Z,56.00
2018-08-23T00:49:32.149Z,57.67
2018-08-23T00:52:00.650Z,61.40
2018-08-23T00:54:29.169Z,54.73
2018-08-23T00:56:57.635Z,57.73
2018-08-23T00:59:26.108Z,72.17
2018-08-23T01:02:11.142Z,66.30
2018-08-23T01:04:45.565Z,65.47
2018-08-23T01:07:16.966Z,63.93
2018-08-23T01:09:45.770Z,64.03
2018-08-23T01:12:14.309Z,61.37
2018-08-23T01:14:42.892Z,60.43
2018-08-23T01:17:16.410Z,66.50
2018-08-23T01:19:50.208Z,64.33
2018-08-23T01:22:18.778Z,60.53
2018-08-23T01:24:49.405Z,59.27
2018-08-23T01:27:23.550Z,64.73
2018-08-23T01:29:52.169Z,63.23
2018-08-23T01:32:26.021Z,58.13
2018-08-23T01:34:54.486Z,54.93
2018-08-23T01:37:34.957Z,57.17
2018-08-23T01:40:05.244Z,63.07
2018-08-23T01:42:35.089Z,63.50
2018-08-23T01:45:04.969Z,56.80
2018-08-23T01:48:06.853Z,49.20
2018-08-23T01:50:35.399Z,48.70
2018-08-23T01:53:03.961Z,51.50
2018-08-23T01:55:32.413Z,53.00
2018-08-23T01:58:00.949Z,50.97
2018-08-23T02:00:33.549Z,54.87
2018-08-23T02:03:02.899Z,51.10
2018-08-23T02:05:31.478Z,56.17
2018-08-23T02:07:59.954Z,53.33
2018-08-23T02:10:28.485Z,52.93
2018-08-23T02:12:58.070Z,56.30
2018-08-23T02:15:28.324Z,56.33
2018-08-23T02:17:57.825Z,52.83
2018-08-23T02:20:27.301Z,60.43
2018-08-23T02:22:56.368Z,52.80
2018-08-23T02:25:25.265Z,46.77
2018-08-23T02:28:03.430Z,56.90
2018-08-23T02:30:52.993Z,58.30
2018-08-23T02:33:21.549Z,51.53
2018-08-23T02:36:06.525Z,56.00
2018-08-23T02:38:36.165Z,52.53
2018-08-23T02:41:04.722Z,49.23
2018-08-23T02:43:33.246Z,50.63
2018-08-23T02:46:03.094Z,50.47
2018-08-23T02:48:31.666Z,48.90
2018-08-23T02:51:01.030Z,53.07
2018-08-23T02:53:43.797Z,47.10
2018-08-23T02:56:15.392Z,52.27
2018-08-23T02:58:59.947Z,47.53
2018-08-23T03:01:30.425Z,50.27
2018-08-23T03:04:13.119Z,52.00
2018-08-23T03:07:13.073Z,44.13
2018-08-23T03:09:45.434Z,50.83
2018-08-23T03:12:16.741Z,51.67
2018-08-23T03:14:45.265Z,48.57
2018-08-23T03:18:24.928Z,52.80
2018-08-23T03:21:04.475Z,50.03
2018-08-23T03:23:33.015Z,48.10
2018-08-23T03:26:01.558Z,52.87
2018-08-23T03:28:31.763Z,50.57
2018-08-23T03:31:00.673Z,52.73
2018-08-23T03:33:30.772Z,46.73
2018-08-23T03:35:59.386Z,45.57
2018-08-23T03:38:27.932Z,56.40
2018-08-23T03:40:56.710Z,49.90
2018-08-23T03:43:25.233Z,46.60
2018-08-23T03:45:55.392Z,49.40
2018-08-23T03:48:23.903Z,50.67
2018-08-23T03:50:53.471Z,58.03
2018-08-23T03:53:22.924Z,55.17
2018-08-23T03:56:06.620Z,67.97
2018-08-23T03:58:35.492Z,57.77
2018-08-23T04:01:05.259Z,61.10
2018-08-23T04:03:33.790Z,58.87
2018-08-23T04:06:17.388Z,62.23
2018-08-23T04:08:47.164Z,67.40
2018-08-23T04:11:16.258Z,63.97
2018-08-23T04:13:45.906Z,56.27
2018-08-23T04:16:14.469Z,69.17
2018-08-23T04:18:43.038Z,66.50
2018-08-23T04:21:11.526Z,67.00
2018-08-23T04:23:39.993Z,60.83
2018-08-23T04:26:08.569Z,58.63
2018-08-23T04:28:37.114Z,59.00
2018-08-23T04:31:05.674Z,55.77
2018-08-23T04:33:34.189Z,78.33
2018-08-23T04:36:02.808Z,74.90
2018-08-23T04:38:31.329Z,75.07
2018-08-23T04:41:08.962Z,71.53
2018-08-23T04:43:37.511Z,69.93
2018-08-23T04:46:10.158Z,70.20
2018-08-23T04:48:38.759Z,58.50
2018-08-23T04:51:07.275Z,68.47
2018-08-23T04:53:35.810Z,62.87
2018-08-23T04:56:04.775Z,70.50
2018-08-23T04:58:33.310Z,61.90
2018-08-23T05:01:01.784Z,73.53
2018-08-23T05:03:30.303Z,84.67
2018-08-23T05:05:58.817Z,70.07
2018-08-23T05:08:27.317Z,77.33
2018-08-23T05:10:55.877Z,94.90
2018-08-23T05:13:24.399Z,86.17
2018-08-23T05:15:52.943Z,74.83
2018-08-23T05:18:21.541Z,77.40
2018-08-23T05:20:50.326Z,91.43
2018-08-23T05:23:20.309Z,85.87
2018-08-23T05:25:48.794Z,93.10
2018-08-23T05:28:19.573Z,96.90
2018-08-23T05:30:49.113Z,93.87
2018-08-23T05:33:21.610Z,95.00
2018-08-23T05:35:50.437Z,113.00
2018-08-23T05:38:19.915Z,107.97
2018-08-23T05:41:02.400Z,100.03
2018-08-23T05:43:30.877Z,92.13
2018-08-23T05:45:59.464Z,94.40
2018-08-23T05:48:31.104Z,88.57
2018-08-23T05:51:04.723Z,88.43
2018-08-23T05:53:33.329Z,87.13
2018-08-23T05:56:02.536Z,85.47
2018-08-23T05:58:32.450Z,82.23
2018-08-23T06:01:01.477Z,79.43
2018-08-23T06:03:31.302Z,92.07
2018-08-23T06:05:59.847Z,78.57
2018-08-23T06:08:28.353Z,76.47
2018-08-23T06:11:03.457Z,71.37
2018-08-23T06:13:32.019Z,75.73
2018-08-23T06:16:01.104Z,77.13
2018-08-23T06:18:29.643Z,74.67
2018-08-23T06:20:58.141Z,67.27
2018-08-23T06:23:32.686Z,69.37
2018-08-23T06:26:01.210Z,61.57
2018-08-23T06:28:29.700Z,60.93
2018-08-23T06:30:59.359Z,60.23
2018-08-23T06:33:36.747Z,54.43
2018-08-23T06:36:05.583Z,56.23
2018-08-23T06:38:35.769Z,58.97
2018-08-23T06:41:05.786Z,58.87
2018-08-23T06:43:34.834Z,56.70
2018-08-23T06:46:03.934Z,58.07
2018-08-23T06:48:32.762Z,62.47
2018-08-23T06:51:02.221Z,59.43
2018-08-23T06:53:39.709Z,60.67
2018-08-23T06:56:08.483Z,63.47
2018-08-23T06:58:37.014Z,74.50
2018-08-23T07:01:10.005Z,63.27
2018-08-23T07:03:51.137Z,71.60
2018-08-23T07:06:20.202Z,65.10
2018-08-23T07:08:48.750Z,68.17
2018-08-23T07:11:22.553Z,63.77
2018-08-23T07:13:57.842Z,71.90
2018-08-23T07:16:26.891Z,66.60
2018-08-23T07:18:55.970Z,64.93
2018-08-23T07:21:24.690Z,65.73
2018-08-23T07:23:53.214Z,72.10
2018-08-23T07:26:21.767Z,79.03
2018-08-23T07:28:50.373Z,75.83
2018-08-23T07:31:18.861Z,71.30
2018-08-23T07:33:51.384Z,70.67
2018-08-23T07:36:27.875Z,69.47
2018-08-23T07:38:57.065Z,69.10
2018-08-23T07:41:25.591Z,69.97
2018-08-23T07:43:54.519Z,73.23
2018-08-23T07:46:23.042Z,75.30
2018-08-23T07:48:51.604Z,75.73
2018-08-23T07:51:25.859Z,69.77
2018-08-23T07:53:57.579Z,68.73
2018-08-23T07:56:28.045Z,67.37
2018-08-23T07:58:57.586Z,66.23
2018-08-23T08:01:31.345Z,67.33
2018-08-23T08:04:00.520Z,68.23
2018-08-23T08:06:29.547Z,76.00
2018-08-23T08:09:09.197Z,65.63
2018-08-23T08:11:52.761Z,72.07
2018-08-23T08:14:26.440Z,66.60
2018-08-23T08:16:59.186Z,72.27
2018-08-23T08:19:28.494Z,77.23
2018-08-23T08:21:57.122Z,70.87
2018-08-23T08:24:25.662Z,75.47
2018-08-23T08:26:54.211Z,72.33
2018-08-23T08:29:27.948Z,64.63
2018-08-23T08:31:56.912Z,71.23
2018-08-23T08:34:26.000Z,77.63
2018-08-23T08:36:54.545Z,68.60
2018-08-23T08:39:23.125Z,80.10
2018-08-23T08:41:51.655Z,71.07
2018-08-23T08:44:20.187Z,81.23
2018-08-23T08:46:49.463Z,71.00
2018-08-23T08:49:17.963Z,80.53
2018-08-23T08:51:46.484Z,69.47
2018-08-23T08:54:14.995Z,66.53
2018-08-23T08:56:45.312Z,73.10
2018-08-23T08:59:13.814Z,72.43
2018-08-23T09:01:42.316Z,78.03
2018-08-23T09:04:14.999Z,87.50
2018-08-23T09:06:45.465Z,75.60
2018-08-23T09:09:22.899Z,70.07
2018-08-23T09:11:51.443Z,72.73
2018-08-23T09:14:20.998Z,76.63
2018-08-23T09:16:49.542Z,66.70
2018-08-23T09:19:18.377Z,78.33
2018-08-23T09:21:56.799Z,71.83
2018-08-23T09:24:27.782Z,69.03
2018-08-23T09:26:56.333Z,66.40
2018-08-23T09:29:35.974Z,66.80
2018-08-23T09:32:19.895Z,64.23
2018-08-23T09:34:48.761Z,65.80
2018-08-23T09:37:17.252Z,70.87
2018-08-23T09:39:46.907Z,68.63
2018-08-23T09:42:16.073Z,76.63
2018-08-23T09:44:58.929Z,78.27
2018-08-23T09:47:28.053Z,83.13
2018-08-23T09:49:57.258Z,76.53
2018-08-23T09:52:30.758Z,70.03
2018-08-23T09:54:59.354Z,70.60
2018-08-23T09:57:28.291Z,72.77
2018-08-23T09:59:57.450Z,68.50
2018-08-23T10:02:31.756Z,68.67
2018-08-23T10:05:04.290Z,80.30
2018-08-23T10:07:38.286Z,80.43
2018-08-23T10:10:11.980Z,70.37
2018-08-23T10:12:45.860Z,75.60
2018-08-23T10:15:19.626Z,74.50
2018-08-23T10:17:53.282Z,75.40
2018-08-23T10:20:27.033Z,85.40
2018-08-23T10:23:02.258Z,69.13
2018-08-23T10:25:40.807Z,80.77
2018-08-23T10:28:11.687Z,77.67
2018-08-23T10:30:40.804Z,80.27
2018-08-23T10:33:09.327Z,71.97
2018-08-23T10:35:38.439Z,70.00
2018-08-23T10:38:07.861Z,71.30
2018-08-23T10:40:36.345Z,70.43
2018-08-23T10:43:04.958Z,72.60
2018-08-23T10:45:33.489Z,77.33
2018-08-23T10:48:07.355Z,81.33
2018-08-23T10:50:35.876Z,75.67
2018-08-23T10:53:04.726Z,76.90
2018-08-23T10:55:33.276Z,74.80
2018-08-23T10:58:01.804Z,65.43
2018-08-23T11:00:31.278Z,58.63
2018-08-23T11:02:59.858Z,50.03
2018-08-23T11:05:28.514Z,44.63
2018-08-23T11:08:02.233Z,77.77
2018-08-23T11:10:36.416Z,41.73
2018-08-23T11:13:10.156Z,35.43
2018-08-23T11:15:38.724Z,35.33
2018-08-23T11:18:12.626Z,35.90
2018-08-23T11:20:47.238Z,40.90
2018-08-23T11:23:18.061Z,38.77
2018-08-23T11:25:46.862Z,30.10
2018-08-23T11:28:20.454Z,37.57
2018-08-23T11:30:49.308Z,35.23
2018-08-23T11:33:17.850Z,34.40
2018-08-23T11:35:46.369Z,30.33
2018-08-23T11:38:15.742Z,29.50
2018-08-23T11:40:44.322Z,30.30
2018-08-23T11:43:12.832Z,35.13
2018-08-23T11:45:41.361Z,28.57
2018-08-23T11:48:10.514Z,29.90
2018-08-23T11:50:39.086Z,30.60
2018-08-23T11:53:07.698Z,29.20
2018-08-23T11:55:36.173Z,30.77
2018-08-23T11:58:04.734Z,34.10
2018-08-23T12:00:33.221Z,34.67
2018-08-23T12:03:01.785Z,34.70
2018-08-23T12:05:30.293Z,29.73
2018-08-23T12:07:58.836Z,31.27
2018-08-23T12:10:27.369Z,29.73
2018-08-23T12:12:55.982Z,29.07
2018-08-23T12:15:34.570Z,27.90
2018-08-23T12:18:03.110Z,29.43
2018-08-23T12:20:31.658Z,29.47
2018-08-23T12:23:00.201Z,34.17
2018-08-23T12:25:28.768Z,30.70
2018-08-23T12:28:02.262Z,26.50
2018-08-23T12:30:31.506Z,33.17
2018-08-23T12:33:00.030Z,30.00
2018-08-23T12:35:28.886Z,28.03
2018-08-23T12:38:02.762Z,30.67
2018-08-23T12:40:37.298Z,27.00
2018-08-23T12:43:08.227Z,28.63
2018-08-23T12:45:40.866Z,27.20
2018-08-23T12:48:10.718Z,27.33
2018-08-23T12:50:39.588Z,30.50
2018-08-23T12:53:08.158Z,27.30
2018-08-23T12:55:36.706Z,28.23
2018-08-23T12:58:11.222Z,27.90
2018-08-23T13:00:40.879Z,29.90
2018-08-23T13:03:09.945Z,28.10
2018-08-23T13:05:39.349Z,24.17
2018-08-23T13:08:08.163Z,24.37
2018-08-23T13:10:37.146Z,27.90
2018-08-23T13:13:05.977Z,30.53
2018-08-23T13:15:34.863Z,26.47
2018-08-23T13:18:03.921Z,27.50
2018-08-23T13:20:32.477Z,24.90
2018-08-23T13:23:01.083Z,23.00
2018-08-23T13:25:29.610Z,21.47
2018-08-23T13:27:58.126Z,30.67
2018-08-23T13:30:26.698Z,23.17
2018-08-23T13:32:55.241Z,24.13
2018-08-23T13:35:24.920Z,24.50
2018-08-23T13:37:53.744Z,26.70
2018-08-23T13:40:22.279Z,30.47
2018-08-23T13:42:50.805Z,25.90
2018-08-23T13:45:19.335Z,26.43
2018-08-23T13:47:47.878Z,24.70
2018-08-23T13:50:16.446Z,24.90
2018-08-23T13:52:45.015Z,26.70
2018-08-23T13:55:13.554Z,22.10
2018-08-23T13:57:42.086Z,23.33
2018-08-23T14:00:14.771Z,20.60
2018-08-23T14:02:43.417Z,31.77
2018-08-23T14:05:11.882Z,24.00
2018-08-23T14:07:40.482Z,26.77
2018-08-23T14:10:09.001Z,22.00
2018-08-23T14:12:37.525Z,25.73
2018-08-23T14:15:06.196Z,23.50
2018-08-23T14:17:34.715Z,21.63
2018-08-23T14:20:03.227Z,23.43
2018-08-23T14:22:31.773Z,22.63
2018-08-23T14:25:00.297Z,21.30
2018-08-23T14:27:28.814Z,24.63
2018-08-23T14:29:57.342Z,19.90
2018-08-23T14:32:25.923Z,20.47
2018-08-23T14:34:54.492Z,21.90
2018-08-23T14:37:23.050Z,19.00
2018-08-23T14:39:51.702Z,27.93
2018-08-23T14:42:20.195Z,19.27
2018-08-23T14:44:48.703Z,23.57
2018-08-23T14:47:22.414Z,19.67
2018-08-23T14:49:50.963Z,21.63
2018-08-23T14:52:19.542Z,24.57
2018-08-23T14:54:48.102Z,18.37
2018-08-23T14:57:21.858Z,20.10
2018-08-23T14:59:50.421Z,18.30
2018-08-23T15:02:18.994Z,21.70
2018-08-23T15:04:48.705Z,24.37
2018-08-23T15:07:18.247Z,21.30
2018-08-23T15:09:46.851Z,26.13
2018-08-23T15:12:15.375Z,20.10
2018-08-23T15:14:43.926Z,20.53
2018-08-23T15:17:12.480Z,23.97
2018-08-23T15:19:41.259Z,21.13
2018-08-23T15:22:10.412Z,23.17
2018-08-23T15:24:39.777Z,23.87
2018-08-23T15:27:08.418Z,23.33
2018-08-23T15:29:37.266Z,18.67
2018-08-23T15:32:05.834Z,16.07
2018-08-23T15:34:34.364Z,20.33
2018-08-23T15:37:02.963Z,16.90
2018-08-23T15:39:31.474Z,17.53
2018-08-23T15:42:00.022Z,21.17
2018-08-23T15:44:29.098Z,16.90
2018-08-23T15:46:57.646Z,20.83
2018-08-23T15:49:26.190Z,16.57
2018-08-23T15:51:55.021Z,20.13
2018-08-23T15:54:23.658Z,23.93
2018-08-23T15:56:52.210Z,22.43
2018-08-23T15:59:20.920Z,19.40
2018-08-23T16:01:49.406Z,25.03
2018-08-23T16:04:17.914Z,23.53
2018-08-23T16:06:46.455Z,24.50
2018-08-23T16:09:14.963Z,20.73
2018-08-23T16:11:43.505Z,20.60
2018-08-23T16:14:12.037Z,25.33
2018-08-23T16:16:45.855Z,24.00
2018-08-23T16:19:19.698Z,24.60
2018-08-23T16:21:53.503Z,21.13
2018-08-23T16:24:22.184Z,23.33
2018-08-23T16:26:56.077Z,24.87
2018-08-23T16:29:24.594Z,20.43
2018-08-23T16:31:53.185Z,25.70
2018-08-23T16:34:21.738Z,25.07
2018-08-23T16:36:50.318Z,22.47
2018-08-23T16:39:18.894Z,33.80
2018-08-23T16:41:47.423Z,21.27
2018-08-23T16:44:15.966Z,26.07
2018-08-23T16:46:44.504Z,28.93
2018-08-23T16:49:13.054Z,22.10
2018-08-23T16:51:41.869Z,22.70
2018-08-23T16:54:10.408Z,20.30
2018-08-23T16:56:38.949Z,18.80
2018-08-23T16:59:07.557Z,18.93
2018-08-23T17:01:36.108Z,17.30
2018-08-23T17:04:04.731Z,17.63
2018-08-23T17:06:33.222Z,15.73
2018-08-23T17:09:01.756Z,16.37
2018-08-23T17:11:30.391Z,16.37
2018-08-23T17:13:58.914Z,17.47
2018-08-23T17:16:32.842Z,15.53
2018-08-23T17:19:01.447Z,12.70
2018-08-23T17:21:30.018Z,13.00
2018-08-23T17:23:58.604Z,11.70
2018-08-23T17:26:27.129Z,13.43
2018-08-23T17:28:55.686Z,15.30
2018-08-23T17:31:24.363Z,14.47
2018-08-23T17:33:52.930Z,17.40
2018-08-23T17:36:21.452Z,16.73
2018-08-23T17:38:50.343Z,14.70
2018-08-23T17:41:18.860Z,13.97
2018-08-23T17:43:47.471Z,11.30
2018-08-23T17:46:16.025Z,12.60
2018-08-23T17:48:44.594Z,18.00
2018-08-23T17:51:13.315Z,16.03
2018-08-23T17:53:41.883Z,12.03
2018-08-23T17:56:10.442Z,12.33
2018-08-23T17:58:38.971Z,15.20
2018-08-23T18:01:07.506Z,13.13
2018-08-23T18:03:36.197Z,15.87
2018-08-23T18:06:04.691Z,14.87
2018-08-23T18:08:33.224Z,18.03
2018-08-23T18:11:01.765Z,12.40
2018-08-23T18:13:30.306Z,14.13
2018-08-23T18:16:04.153Z,13.27
2018-08-23T18:18:33.028Z,14.83
2018-08-23T18:21:01.513Z,13.70
2018-08-23T18:23:29.993Z,12.50
2018-08-23T18:25:58.538Z,14.27
2018-08-23T18:28:27.042Z,12.17
2018-08-23T18:30:55.569Z,15.23
2018-08-23T18:33:24.686Z,12.70
2018-08-23T18:35:53.291Z,15.90
2018-08-23T18:38:21.852Z,17.70
2018-08-23T18:40:50.377Z,15.93
2018-08-23T18:43:18.962Z,14.70
2018-08-23T18:45:47.661Z,15.33
2018-08-23T18:48:16.282Z,16.60
2018-08-23T18:50:44.883Z,18.50
2018-08-23T18:53:13.397Z,14.90
2018-08-23T18:55:41.925Z,17.83
2018-08-23T18:58:10.477Z,14.17
2018-08-23T19:00:38.991Z,12.60
2018-08-23T19:03:07.521Z,15.80
2018-08-23T19:05:36.258Z,15.10
2018-08-23T19:08:04.797Z,15.30
2018-08-23T19:10:33.353Z,19.87
2018-08-23T19:13:01.931Z,15.03
2018-08-23T19:15:35.666Z,17.63
2018-08-23T19:18:04.226Z,15.60
2018-08-23T19:20:32.767Z,18.80
2018-08-23T19:23:01.295Z,17.40
2018-08-23T19:25:29.867Z,21.30
2018-08-23T19:27:58.434Z,19.97
2018-08-23T19:30:27.019Z,22.40
2018-08-23T19:32:55.563Z,20.37
2018-08-23T19:35:24.130Z,24.33
2018-08-23T19:37:52.635Z,20.60
2018-08-23T19:40:21.137Z,21.23
2018-08-23T19:42:49.699Z,22.23
2018-08-23T19:45:18.198Z,20.20
2018-08-23T19:47:52.116Z,20.43
2018-08-23T19:50:20.615Z,21.63
2018-08-23T19:52:49.614Z,22.10
2018-08-23T19:55:18.167Z,24.43
2018-08-23T19:57:46.722Z,22.83
2018-08-23T20:00:15.320Z,24.70
2018-08-23T20:02:43.785Z,22.87
2018-08-23T20:05:12.461Z,25.43
2018-08-23T20:07:41.073Z,22.87
2018-08-23T20:10:09.599Z,19.97
2018-08-23T20:12:38.146Z,18.47
2018-08-23T20:15:06.721Z,19.80
2018-08-23T20:17:35.226Z,22.50
2018-08-23T20:20:03.799Z,22.73
2018-08-23T20:22:32.295Z,25.80
2018-08-23T20:25:00.906Z,20.13
2018-08-23T20:27:29.379Z,24.30
2018-08-23T20:29:57.906Z,21.63
2018-08-23T20:32:26.523Z,19.00
2018-08-23T20:34:54.985Z,20.23
2018-08-23T20:37:23.569Z,18.00
2018-08-23T20:39:52.162Z,17.80
2018-08-23T20:42:20.768Z,18.10
2018-08-23T20:44:49.266Z,20.77
2018-08-23T20:47:17.786Z,21.80
2018-08-23T20:49:46.401Z,16.27
2018-08-23T20:52:14.995Z,16.50
2018-08-23T20:54:45.807Z,19.97
2018-08-23T20:57:15.301Z,14.33
2018-08-23T20:59:43.831Z,14.37
2018-08-23T21:02:12.347Z,14.10
2018-08-23T21:04:40.943Z,21.13
2018-08-23T21:07:09.365Z,14.57
2018-08-23T21:09:37.922Z,11.63
2018-08-23T21:12:06.481Z,12.90
2018-08-23T21:14:35.408Z,12.43
2018-08-23T21:17:03.921Z,11.13
2018-08-23T21:19:32.438Z,17.67
2018-08-23T21:22:00.991Z,11.40
2018-08-23T21:24:29.503Z,12.40
2018-08-23T21:26:58.059Z,12.37
2018-08-23T21:29:26.550Z,9.37
2018-08-23T21:31:55.088Z,10.00
2018-08-23T21:34:23.652Z,13.10
2018-08-23T21:36:53.002Z,9.33
2018-08-23T21:39:21.512Z,9.73
2018-08-23T21:41:49.999Z,12.53
2018-08-23T21:44:18.499Z,1.60
2018-08-23T21:46:46.973Z,1.53
2018-08-23T21:49:15.532Z,8.00
2018-08-23T21:51:44.049Z,3.70
2018-08-23T21:54:12.590Z,2.00
2018-08-23T21:56:41.142Z,2.03
2018-08-23T21:59:09.665Z,1.27
2018-08-23T22:01:38.218Z,3.40
2018-08-23T22:04:06.840Z,2.73
2018-08-23T22:06:35.398Z,3.23
2018-08-23T22:09:05.079Z,3.27
2018-08-23T22:11:33.592Z,4.70
2018-08-23T22:14:02.491Z,7.37
2018-08-23T22:16:31.013Z,10.10
2018-08-23T22:18:59.586Z,8.90
2018-08-23T22:21:28.145Z,9.13
2018-08-23T22:23:56.694Z,11.90
2018-08-23T22:26:25.283Z,7.93
2018-08-23T22:28:53.849Z,14.33
2018-08-23T22:31:22.416Z,10.00
2018-08-23T22:33:50.959Z,14.37
2018-08-23T22:36:19.486Z,12.70
2018-08-23T22:38:48.057Z,20.47
2018-08-23T22:41:16.636Z,13.57
2018-08-23T22:43:45.161Z,13.73
2018-08-23T22:46:13.715Z,14.87
2018-08-23T22:48:42.274Z,12.87
2018-08-23T22:51:10.766Z,24.63
2018-08-23T22:53:40.018Z,14.67
2018-08-23T22:56:08.585Z,15.57
2018-08-23T22:58:37.186Z,14.40
2018-08-23T23:01:05.718Z,16.30
2018-08-23T23:03:39.562Z,17.60
2018-08-23T23:06:08.023Z,11.97
2018-08-23T23:08:36.617Z,13.10
2018-08-23T23:11:05.459Z,16.13
2018-08-23T23:13:33.962Z,20.90
2018-08-23T23:16:02.474Z,16.70
2018-08-23T23:18:30.945Z,13.80
2018-08-23T23:20:59.502Z,12.77
2018-08-23T23:23:28.053Z,13.83
2018-08-23T23:25:56.685Z,13.67
2018-08-23T23:28:25.258Z,13.70
2018-08-23T23:30:53.785Z,17.73
2018-08-23T23:33:28.841Z,12.67
2018-08-23T23:35:57.367Z,15.67
2018-08-23T23:38:25.938Z,20.83
2018-08-23T23:40:54.498Z,19.03
2018-08-23T23:43:23.059Z,16.03
2018-08-23T23:45:51.600Z,15.17
2018-08-23T23:48:20.072Z,16.10
2018-08-23T23:50:48.889Z,16.57
2018-08-23T23:53:17.392Z,13.93
2018-08-23T23:55:45.880Z,16.13
2018-08-23T23:58:14.410Z,15.30
